sensor_id;sensor_type;location;lat;lon;timestamp;pressure;altitude;pressure_sealevel;temperature;humidity
68489;BME280;55481;48.764;8.936;2023-04-06T00:02:16;97240;;;-0.1;57
68489;BME280;55481;48.764;8.936;2023-04-06T00:04:54;97240;;;-0.1;57
68489;BME280;55481;48.764;8.936;2023-04-06T00:09:49;97240;;;-0.1;56.5
68489;BME280;55481;48.764;8.936;2023-04-06T00:12:20;97240;;;-0.1;56.5
68489;BME280;55481;48.764;8.936;2023-04-06T00:14:52;97240;;;-0.1;56.5
68489;BME280;55481;48.764;8.936;2023-04-06T00:17:22;97230;;;-0.1;56.5
68489;BME280;55481;48.764;8.936;2023-04-06T00:20:00;97230;;;-0.1;56.5
68489;BME280;55481;48.764;8.936;2023-04-06T00:22:24;97230;;;-0.3;57
68489;BME280;55481;48.764;8.936;2023-04-06T00:24:55;97230;;;-0.5;57.5
68489;BME280;55481;48.764;8.936;2023-04-06T00:27:26;97230;;;-0.7;58
68489;BME280;55481;48.764;8.936;2023-04-06T00:29:57;97230;;;-0.7;58
68489;BME280;55481;48.764;8.936;2023-04-06T00:32:28;97230;;;-0.7;58
68489;BME280;55481;48.764;8.936;2023-04-06T00:35:06;97230;;;-0.6;58
68489;BME280;55481;48.764;8.936;2023-04-06T00:37:42;97220;;;-0.7;58
68489;BME280;55481;48.764;8.936;2023-04-06T00:42:30;97220;;;-0.5;57.5
68489;BME280;55481;48.764;8.936;2023-04-06T00:45:09;97220;;;-0.5;57.5
68489;BME280;55481;48.764;8.936;2023-04-06T00:47:32;97210;;;-0.6;57.5
68489;BME280;55481;48.764;8.936;2023-04-06T00:52:27;97210;;;-0.5;57.5
68489;BME280;55481;48.764;8.936;2023-04-06T00:54:58;97210;;;-0.5;57.5
68489;BME280;55481;48.764;8.936;2023-04-06T01:00:00;97210;;;-0.7;58
68489;BME280;55481;48.764;8.936;2023-04-06T01:07:31;97210;;;-0.6;57.5
68489;BME280;55481;48.764;8.936;2023-04-06T01:17:34;97200;;;-0.6;57.5
68489;BME280;55481;48.764;8.936;2023-04-06T01:20:32;97200;;;-0.5;57.5
68489;BME280;55481;48.764;8.936;2023-04-06T01:22:49;97200;;;-0.6;57.5
68489;BME280;55481;48.764;8.936;2023-04-06T01:27:43;97190;;;-0.6;58
68489;BME280;55481;48.764;8.936;2023-04-06T01:30:14;97190;;;-0.6;58
68489;BME280;55481;48.764;8.936;2023-04-06T01:32:44;97190;;;-0.6;58
68489;BME280;55481;48.764;8.936;2023-04-06T01:36:18;97190;;;-0.4;58
68489;BME280;55481;48.764;8.936;2023-04-06T01:38:41;97190;;;-0.3;58.5
68489;BME280;55481;48.764;8.936;2023-04-06T01:41:12;97190;;;-0.4;58.5
68489;BME280;55481;48.764;8.936;2023-04-06T01:48:45;97180;;;-0.7;58.5
68489;BME280;55481;48.764;8.936;2023-04-06T01:51:15;97180;;;-0.8;58.5
68489;BME280;55481;48.764;8.936;2023-04-06T01:53:46;97180;;;-0.9;59
68489;BME280;55481;48.764;8.936;2023-04-06T01:56:30;97190;;;-1;59
68489;BME280;55481;48.764;8.936;2023-04-06T01:59:00;97180;;;-1.1;59
68489;BME280;55481;48.764;8.936;2023-04-06T02:03:54;97180;;;-1.3;59.5
68489;BME280;55481;48.764;8.936;2023-04-06T02:06:25;97180;;;-1.2;59
68489;BME280;55481;48.764;8.936;2023-04-06T02:08:56;97170;;;-1.2;59
68489;BME280;55481;48.764;8.936;2023-04-06T02:11:33;97180;;;-1.2;59
68489;BME280;55481;48.764;8.936;2023-04-06T02:16:41;97180;;;-1.1;59
68489;BME280;55481;48.764;8.936;2023-04-06T02:19:18;97170;;;-1.1;58.5
68489;BME280;55481;48.764;8.936;2023-04-06T02:24:00;97180;;;-1.2;59
68489;BME280;55481;48.764;8.936;2023-04-06T02:26:30;97180;;;-1.2;59
68489;BME280;55481;48.764;8.936;2023-04-06T02:29:03;97170;;;-1.3;59
68489;BME280;55481;48.764;8.936;2023-04-06T02:31:32;97170;;;-1.3;59
68489;BME280;55481;48.764;8.936;2023-04-06T02:41:28;97170;;;-1.2;59
68489;BME280;55481;48.764;8.936;2023-04-06T02:44:02;97170;;;-1.3;59
68489;BME280;55481;48.764;8.936;2023-04-06T02:46:30;97170;;;-1.4;59.5
68489;BME280;55481;48.764;8.936;2023-04-06T02:49:01;97170;;;-1.2;59
68489;BME280;55481;48.764;8.936;2023-04-06T02:51:31;97170;;;-1.2;59
68489;BME280;55481;48.764;8.936;2023-04-06T02:54:02;97170;;;-1.2;59
68489;BME280;55481;48.764;8.936;2023-04-06T02:56:33;97170;;;-1.2;59
68489;BME280;55481;48.764;8.936;2023-04-06T02:59:04;97170;;;-1.2;59
68489;BME280;55481;48.764;8.936;2023-04-06T03:01:35;97170;;;-1.3;59
68489;BME280;55481;48.764;8.936;2023-04-06T03:09:07;97170;;;-1.4;59.5
68489;BME280;55481;48.764;8.936;2023-04-06T03:14:14;97170;;;-1.6;59.5
68489;BME280;55481;48.764;8.936;2023-04-06T03:16:46;97170;;;-1.6;60
68489;BME280;55481;48.764;8.936;2023-04-06T03:19:16;97170;;;-1.6;60
68489;BME280;55481;48.764;8.936;2023-04-06T03:21:47;97170;;;-1.7;60
68489;BME280;55481;48.764;8.936;2023-04-06T03:24:19;97170;;;-1.7;60
68489;BME280;55481;48.764;8.936;2023-04-06T03:26:50;97160;;;-1.7;60
68489;BME280;55481;48.764;8.936;2023-04-06T03:29:20;97170;;;-1.4;59.5
68489;BME280;55481;48.764;8.936;2023-04-06T03:31:51;97170;;;-1.5;59.5
68489;BME280;55481;48.764;8.936;2023-04-06T03:34:29;97170;;;-1.4;59.5
68489;BME280;55481;48.764;8.936;2023-04-06T03:42:01;97170;;;-1.4;59.5
68489;BME280;55481;48.764;8.936;2023-04-06T03:44:31;97180;;;-1.5;60
68489;BME280;55481;48.764;8.936;2023-04-06T03:49:26;97180;;;-1.5;59.5
68489;BME280;55481;48.764;8.936;2023-04-06T03:51:57;97180;;;-1.4;59.5
68489;BME280;55481;48.764;8.936;2023-04-06T03:54:27;97180;;;-1.4;59.5
68489;BME280;55481;48.764;8.936;2023-04-06T03:56:52;97190;;;-1.4;59.5
68489;BME280;55481;48.764;8.936;2023-04-06T04:04:24;97190;;;-1.7;60.5
68489;BME280;55481;48.764;8.936;2023-04-06T04:06:55;97190;;;-1.8;60.5
68489;BME280;55481;48.764;8.936;2023-04-06T04:09:26;97190;;;-1.8;60.5
68489;BME280;55481;48.764;8.936;2023-04-06T04:11:57;97190;;;-1.8;60.5
68489;BME280;55481;48.764;8.936;2023-04-06T04:14:29;97190;;;-1.8;60.5
68489;BME280;55481;48.764;8.936;2023-04-06T04:19:35;97190;;;-1.8;60.5
68489;BME280;55481;48.764;8.936;2023-04-06T04:22:08;97190;;;-1.7;60
68489;BME280;55481;48.764;8.936;2023-04-06T04:24:39;97190;;;-1.7;60
68489;BME280;55481;48.764;8.936;2023-04-06T04:27:08;97200;;;-1.5;60
68489;BME280;55481;48.764;8.936;2023-04-06T04:29:45;97190;;;-1.5;59.5
68489;BME280;55481;48.764;8.936;2023-04-06T04:32:26;97190;;;-1.6;60
68489;BME280;55481;48.764;8.936;2023-04-06T04:37:09;97190;;;-1.7;60.5
68489;BME280;55481;48.764;8.936;2023-04-06T04:39:40;97200;;;-1.8;60.5
68489;BME280;55481;48.764;8.936;2023-04-06T04:42:11;97190;;;-1.8;60.5
68489;BME280;55481;48.764;8.936;2023-04-06T04:44:42;97190;;;-1.7;60.5
68489;BME280;55481;48.764;8.936;2023-04-06T04:47:05;97190;;;-1.7;60
68489;BME280;55481;48.764;8.936;2023-04-06T04:54:38;97200;;;-2.1;61
68489;BME280;55481;48.764;8.936;2023-04-06T04:57:09;97210;;;-2;61
68489;BME280;55481;48.764;8.936;2023-04-06T04:59:39;97210;;;-2;61
68489;BME280;55481;48.764;8.936;2023-04-06T05:02:11;97210;;;-2.2;61
68489;BME280;55481;48.764;8.936;2023-04-06T05:04:48;97210;;;-2.1;61.5
68489;BME280;55481;48.764;8.936;2023-04-06T05:07:20;97210;;;-2;61
68489;BME280;55481;48.764;8.936;2023-04-06T05:12:14;97210;;;-1.8;60.5
68489;BME280;55481;48.764;8.936;2023-04-06T05:14:45;97210;;;-1.6;60.5
68489;BME280;55481;48.764;8.936;2023-04-06T05:24:48;97210;;;-1.3;59.5
68489;BME280;55481;48.764;8.936;2023-04-06T05:27:18;97210;;;-1.6;60.5
68489;BME280;55481;48.764;8.936;2023-04-06T05:29:49;97210;;;-1.5;60.5
68489;BME280;55481;48.764;8.936;2023-04-06T05:32:33;97210;;;-1.3;60.5
68489;BME280;55481;48.764;8.936;2023-04-06T05:35:04;97210;;;-1.3;60.5
68489;BME280;55481;48.764;8.936;2023-04-06T05:42:35;97210;;;-1;60
68489;BME280;55481;48.764;8.936;2023-04-06T05:44:59;97220;;;-0.8;59.5
68489;BME280;55481;48.764;8.936;2023-04-06T05:47:30;97220;;;-0.7;59.5
68489;BME280;55481;48.764;8.936;2023-04-06T05:50:09;97220;;;-0.6;59.5
68489;BME280;55481;48.764;8.936;2023-04-06T05:52:38;97220;;;-0.7;59.5
68489;BME280;55481;48.764;8.936;2023-04-06T05:57:32;97220;;;-0.6;60
68489;BME280;55481;48.764;8.936;2023-04-06T06:00:09;97220;;;-0.5;60
68489;BME280;55481;48.764;8.936;2023-04-06T06:02:33;97220;;;-0.4;59.5
68489;BME280;55481;48.764;8.936;2023-04-06T06:05:04;97220;;;-0.3;59.5
68489;BME280;55481;48.764;8.936;2023-04-06T06:07:43;97230;;;0;59
68489;BME280;55481;48.764;8.936;2023-04-06T06:10:07;97220;;;0.1;59
68489;BME280;55481;48.764;8.936;2023-04-06T06:15:11;97220;;;0.3;58.5
68489;BME280;55481;48.764;8.936;2023-04-06T06:17:40;97230;;;0.4;58.5
68489;BME280;55481;48.764;8.936;2023-04-06T06:20:17;97220;;;0.5;58.5
68489;BME280;55481;48.764;8.936;2023-04-06T06:22:47;97220;;;0.7;58.5
68489;BME280;55481;48.764;8.936;2023-04-06T06:30:19;97220;;;1.1;58
68489;BME280;55481;48.764;8.936;2023-04-06T06:32:50;97220;;;1.3;58
68489;BME280;55481;48.764;8.936;2023-04-06T06:35:12;97220;;;1.4;58
68489;BME280;55481;48.764;8.936;2023-04-06T06:37:44;97220;;;1.4;58
68489;BME280;55481;48.764;8.936;2023-04-06T06:40:15;97220;;;1.6;58
68489;BME280;55481;48.764;8.936;2023-04-06T06:45:16;97220;;;1.9;57.5
68489;BME280;55481;48.764;8.936;2023-04-06T06:47:48;97220;;;2.1;57.5
68489;BME280;55481;48.764;8.936;2023-04-06T06:50:19;97220;;;2.1;57.5
68489;BME280;55481;48.764;8.936;2023-04-06T06:52:49;97220;;;2.4;57.5
68489;BME280;55481;48.764;8.936;2023-04-06T06:55:20;97220;;;2.6;57
68489;BME280;55481;48.764;8.936;2023-04-06T06:57:52;97220;;;2.6;57.5
68489;BME280;55481;48.764;8.936;2023-04-06T07:00:24;97220;;;2.8;57.5
68489;BME280;55481;48.764;8.936;2023-04-06T07:03:01;97220;;;2.9;57
68489;BME280;55481;48.764;8.936;2023-04-06T07:05:32;97220;;;3.3;57
68489;BME280;55481;48.764;8.936;2023-04-06T07:10:28;97210;;;3.7;56.5
68489;BME280;55481;48.764;8.936;2023-04-06T07:12:57;97210;;;3.9;56.5
68489;BME280;55481;48.764;8.936;2023-04-06T07:15:28;97210;;;4.1;56
68489;BME280;55481;48.764;8.936;2023-04-06T07:18:00;97210;;;4.2;56
68489;BME280;55481;48.764;8.936;2023-04-06T07:20:31;97210;;;4.6;56
68489;BME280;55481;48.764;8.936;2023-04-06T07:23:01;97210;;;4.9;55.5
68489;BME280;55481;48.764;8.936;2023-04-06T07:28:03;97210;;;5.2;55.5
68489;BME280;55481;48.764;8.936;2023-04-06T07:30:34;97210;;;5.4;55.5
68489;BME280;55481;48.764;8.936;2023-04-06T07:33:11;97210;;;5.6;55
68489;BME280;55481;48.764;8.936;2023-04-06T07:35:42;97210;;;5.6;55.5
68489;BME280;55481;48.764;8.936;2023-04-06T07:40:57;97200;;;6;55
68489;BME280;55481;48.764;8.936;2023-04-06T07:45:44;97200;;;6.5;55
68489;BME280;55481;48.764;8.936;2023-04-06T07:48:15;97210;;;6.7;54.5
68489;BME280;55481;48.764;8.936;2023-04-06T07:50:44;97200;;;6.8;54.5
68489;BME280;55481;48.764;8.936;2023-04-06T07:53:15;97200;;;7;54.5
68489;BME280;55481;48.764;8.936;2023-04-06T07:58:08;97200;;;7.3;54.5
68489;BME280;55481;48.764;8.936;2023-04-06T08:00:46;97200;;;7.6;54.5
68489;BME280;55481;48.764;8.936;2023-04-06T08:03:17;97200;;;7.8;54
68489;BME280;55481;48.764;8.936;2023-04-06T08:10:50;97190;;;8.3;54
68489;BME280;55481;48.764;8.936;2023-04-06T08:13:20;97190;;;8.7;53.5
68489;BME280;55481;48.764;8.936;2023-04-06T08:15:50;97180;;;8.8;53.5
68489;BME280;55481;48.764;8.936;2023-04-06T08:20:44;97180;;;8.9;54
68489;BME280;55481;48.764;8.936;2023-04-06T08:23:16;97190;;;9.1;53.5
68489;BME280;55481;48.764;8.936;2023-04-06T08:25:53;97190;;;9.3;53.5
68489;BME280;55481;48.764;8.936;2023-04-06T08:28:23;97190;;;9.4;53.5
68489;BME280;55481;48.764;8.936;2023-04-06T08:33:19;97190;;;9.6;53.5
68489;BME280;55481;48.764;8.936;2023-04-06T08:35:50;97190;;;9.7;53.5
68489;BME280;55481;48.764;8.936;2023-04-06T08:38:20;97180;;;10;53
68489;BME280;55481;48.764;8.936;2023-04-06T08:40:54;97180;;;10.1;53
68489;BME280;55481;48.764;8.936;2023-04-06T08:43:23;97180;;;9.6;54.5
68489;BME280;55481;48.764;8.936;2023-04-06T08:48:17;97180;;;9.8;54
68489;BME280;55481;48.764;8.936;2023-04-06T08:50:48;97170;;;10.2;53.5
68489;BME280;55481;48.764;8.936;2023-04-06T08:58:21;97170;;;10.2;53
68489;BME280;55481;48.764;8.936;2023-04-06T09:00:51;97170;;;10.2;53.5
68489;BME280;55481;48.764;8.936;2023-04-06T09:03:23;97170;;;10.4;53.5
68489;BME280;55481;48.764;8.936;2023-04-06T09:08:32;97170;;;10.5;53
68489;BME280;55481;48.764;8.936;2023-04-06T09:11:01;97170;;;10.7;53
68489;BME280;55481;48.764;8.936;2023-04-06T09:13:51;97170;;;10.9;52.5
68489;BME280;55481;48.764;8.936;2023-04-06T09:16:03;97160;;;11.2;52
68489;BME280;55481;48.764;8.936;2023-04-06T09:28:40;97170;;;10.9;53.5
68489;BME280;55481;48.764;8.936;2023-04-06T09:31:01;97160;;;10.7;53.5
68489;BME280;55481;48.764;8.936;2023-04-06T09:33:32;97160;;;10.5;53.5
68489;BME280;55481;48.764;8.936;2023-04-06T09:36:03;97170;;;10.7;53.5
68489;BME280;55481;48.764;8.936;2023-04-06T09:41:10;97160;;;11.2;52.5
68489;BME280;55481;48.764;8.936;2023-04-06T09:43:41;97160;;;11.6;51.5
68489;BME280;55481;48.764;8.936;2023-04-06T09:46:12;97160;;;11.4;51.5
68489;BME280;55481;48.764;8.936;2023-04-06T09:48:35;97160;;;10.7;52.5
68489;BME280;55481;48.764;8.936;2023-04-06T09:58:39;97160;;;11.1;52
68489;BME280;55481;48.764;8.936;2023-04-06T10:01:12;97150;;;11.2;52
68489;BME280;55481;48.764;8.936;2023-04-06T10:03:44;97150;;;11.3;52
68489;BME280;55481;48.764;8.936;2023-04-06T10:08:49;97150;;;11.4;51.5
68489;BME280;55481;48.764;8.936;2023-04-06T10:11:19;97150;;;11.1;52
68489;BME280;55481;48.764;8.936;2023-04-06T10:13:50;97150;;;11.3;51.5
68489;BME280;55481;48.764;8.936;2023-04-06T10:16:20;97140;;;11.2;52
68489;BME280;55481;48.764;8.936;2023-04-06T10:19:00;97140;;;11.4;51
68489;BME280;55481;48.764;8.936;2023-04-06T10:21:27;97140;;;11.9;50.5
68489;BME280;55481;48.764;8.936;2023-04-06T10:26:22;97130;;;11.7;50.5
68489;BME280;55481;48.764;8.936;2023-04-06T10:31:24;97140;;;12.1;50.5
68489;BME280;55481;48.764;8.936;2023-04-06T10:33:55;97140;;;11.6;51.5
68489;BME280;55481;48.764;8.936;2023-04-06T10:36:27;97140;;;11.5;51
68489;BME280;55481;48.764;8.936;2023-04-06T10:39:04;97140;;;12;50.5
68489;BME280;55481;48.764;8.936;2023-04-06T10:41:36;97130;;;12.2;50
68489;BME280;55481;48.764;8.936;2023-04-06T10:43:58;97130;;;12.1;50.5
68489;BME280;55481;48.764;8.936;2023-04-06T10:46:30;97130;;;11.9;51
68489;BME280;55481;48.764;8.936;2023-04-06T10:49:15;97130;;;11.9;51
68489;BME280;55481;48.764;8.936;2023-04-06T10:51:40;97130;;;12;51
68489;BME280;55481;48.764;8.936;2023-04-06T10:56:36;97120;;;11.9;51
68489;BME280;55481;48.764;8.936;2023-04-06T10:59:05;97120;;;12;50.5
68489;BME280;55481;48.764;8.936;2023-04-06T11:01:35;97120;;;12.1;50.5
68489;BME280;55481;48.764;8.936;2023-04-06T11:04:06;97120;;;12.2;50
68489;BME280;55481;48.764;8.936;2023-04-06T11:06:37;97130;;;12.1;50.5
68489;BME280;55481;48.764;8.936;2023-04-06T11:09:08;97120;;;12.1;50.5
68489;BME280;55481;48.764;8.936;2023-04-06T11:11:40;97120;;;12.4;50
68489;BME280;55481;48.764;8.936;2023-04-06T11:16:41;97110;;;12.6;49.5
68489;BME280;55481;48.764;8.936;2023-04-06T11:19:12;97110;;;12.8;49.5
68489;BME280;55481;48.764;8.936;2023-04-06T11:21:44;97110;;;12.9;49.5
68489;BME280;55481;48.764;8.936;2023-04-06T11:24:16;97110;;;12.7;49.5
68489;BME280;55481;48.764;8.936;2023-04-06T11:26:46;97100;;;12.8;49.5
68489;BME280;55481;48.764;8.936;2023-04-06T11:29:17;97100;;;13.1;49
68489;BME280;55481;48.764;8.936;2023-04-06T11:31:50;97100;;;13.4;48.5
68489;BME280;55481;48.764;8.936;2023-04-06T11:34:19;97100;;;12.7;49.5
68489;BME280;55481;48.764;8.936;2023-04-06T11:36:55;97100;;;13;49
68489;BME280;55481;48.764;8.936;2023-04-06T11:39:27;97090;;;13.7;48
68489;BME280;55481;48.764;8.936;2023-04-06T11:42:05;97070;;;15.5;44.5
68489;BME280;55481;48.764;8.936;2023-04-06T11:44:36;97060;;;17.9;40.5
68489;BME280;55481;48.764;8.936;2023-04-06T11:46:59;97060;;;18.1;39.5
68489;BME280;55481;48.764;8.936;2023-04-06T11:51:52;97060;;;17.6;40.5
68489;BME280;55481;48.764;8.936;2023-04-06T11:54:38;97050;;;17.9;40
68489;BME280;55481;48.764;8.936;2023-04-06T11:59:25;97050;;;19.2;38.5
68489;BME280;55481;48.764;8.936;2023-04-06T12:01:56;97040;;;20.2;37.5
68489;BME280;55481;48.764;8.936;2023-04-06T12:04:33;97040;;;19.8;38
68489;BME280;55481;48.764;8.936;2023-04-06T12:07:03;97040;;;19.7;38.5
68489;BME280;55481;48.764;8.936;2023-04-06T12:09:33;97040;;;19.6;39.5
68489;BME280;55481;48.764;8.936;2023-04-06T12:14:27;97050;;;18.1;42
68489;BME280;55481;48.764;8.936;2023-04-06T12:16:59;97060;;;17.2;44
68489;BME280;55481;48.764;8.936;2023-04-06T12:19:30;97040;;;18.7;41.5
68489;BME280;55481;48.764;8.936;2023-04-06T12:22:02;97030;;;20;39.5
68489;BME280;55481;48.764;8.936;2023-04-06T12:24:38;97040;;;21.2;38
68489;BME280;55481;48.764;8.936;2023-04-06T12:27:02;97030;;;21;38
68489;BME280;55481;48.764;8.936;2023-04-06T12:29:33;97030;;;20.1;39.5
68489;BME280;55481;48.764;8.936;2023-04-06T12:32:04;97030;;;19.7;40.5
68489;BME280;55481;48.764;8.936;2023-04-06T12:34:35;97030;;;18.4;43
68489;BME280;55481;48.764;8.936;2023-04-06T12:37:06;97020;;;19.8;41
68489;BME280;55481;48.764;8.936;2023-04-06T12:39:45;97030;;;19.9;40.5
68489;BME280;55481;48.764;8.936;2023-04-06T12:42:20;97030;;;18.4;43.5
68489;BME280;55481;48.764;8.936;2023-04-06T12:44:50;97020;;;19.2;42.5
68489;BME280;55481;48.764;8.936;2023-04-06T12:47:14;97020;;;20;40.5
68489;BME280;55481;48.764;8.936;2023-04-06T12:49:44;97010;;;20.3;40.5
68489;BME280;55481;48.764;8.936;2023-04-06T12:54:47;97010;;;22.5;37
68489;BME280;55481;48.764;8.936;2023-04-06T12:57:15;97010;;;22.5;37
68489;BME280;55481;48.764;8.936;2023-04-06T12:59:39;97010;;;22.4;37.5
68489;BME280;55481;48.764;8.936;2023-04-06T13:02:16;97010;;;21.8;38.5
68489;BME280;55481;48.764;8.936;2023-04-06T13:07:11;97020;;;19.6;42
68489;BME280;55481;48.764;8.936;2023-04-06T13:09:42;97020;;;18.5;43
68489;BME280;55481;48.764;8.936;2023-04-06T13:12:13;97020;;;19;41.5
68489;BME280;55481;48.764;8.936;2023-04-06T13:14:44;97020;;;18.5;42.5
68489;BME280;55481;48.764;8.936;2023-04-06T13:17:15;97010;;;18.3;42
68489;BME280;55481;48.764;8.936;2023-04-06T13:19:48;97020;;;17.5;43
68489;BME280;55481;48.764;8.936;2023-04-06T13:22:17;97010;;;17.7;42.5
68489;BME280;55481;48.764;8.936;2023-04-06T13:24:48;97010;;;16.6;44.5
68489;BME280;55481;48.764;8.936;2023-04-06T13:27:21;97020;;;17;43.5
68489;BME280;55481;48.764;8.936;2023-04-06T13:29:50;97010;;;17.1;43.5
68489;BME280;55481;48.764;8.936;2023-04-06T13:32:28;97000;;;18;42
68489;BME280;55481;48.764;8.936;2023-04-06T13:35:06;97000;;;18.5;40
68489;BME280;55481;48.764;8.936;2023-04-06T13:37:54;97010;;;17;42
68489;BME280;55481;48.764;8.936;2023-04-06T13:42:27;97010;;;15.4;44
68489;BME280;55481;48.764;8.936;2023-04-06T13:44:54;97010;;;15.1;44.5
68489;BME280;55481;48.764;8.936;2023-04-06T13:49:49;97000;;;16.6;42
68489;BME280;55481;48.764;8.936;2023-04-06T13:59:51;96980;;;19.8;37
68489;BME280;55481;48.764;8.936;2023-04-06T14:02:22;96980;;;20;37
68489;BME280;55481;48.764;8.936;2023-04-06T14:04:53;96980;;;20;37
68489;BME280;55481;48.764;8.936;2023-04-06T14:07:30;96980;;;19.2;38
68489;BME280;55481;48.764;8.936;2023-04-06T14:10:03;96990;;;18.7;39.5
68489;BME280;55481;48.764;8.936;2023-04-06T14:14:56;97000;;;16.3;43.5
68489;BME280;55481;48.764;8.936;2023-04-06T14:17:27;97000;;;15.6;44.5
68489;BME280;55481;48.764;8.936;2023-04-06T14:25:00;97000;;;14.2;45.5
68489;BME280;55481;48.764;8.936;2023-04-06T14:27:30;97000;;;14;45.5
68489;BME280;55481;48.764;8.936;2023-04-06T14:30:01;97000;;;13.8;45.5
68489;BME280;55481;48.764;8.936;2023-04-06T14:35:09;97000;;;14;45
68489;BME280;55481;48.764;8.936;2023-04-06T14:37:40;97000;;;14.3;44.5
68489;BME280;55481;48.764;8.936;2023-04-06T14:40:13;97000;;;14;45
68489;BME280;55481;48.764;8.936;2023-04-06T14:42:42;97000;;;14.3;44
68489;BME280;55481;48.764;8.936;2023-04-06T14:50:08;97010;;;13.3;45
68489;BME280;55481;48.764;8.936;2023-04-06T14:52:39;97000;;;13.1;45.5
68489;BME280;55481;48.764;8.936;2023-04-06T14:55:09;97010;;;13;45.5
68489;BME280;55481;48.764;8.936;2023-04-06T14:57:40;97000;;;12.9;45
68489;BME280;55481;48.764;8.936;2023-04-06T15:00:11;97000;;;12.8;45
68489;BME280;55481;48.764;8.936;2023-04-06T15:05:18;97010;;;12.5;45.5
68489;BME280;55481;48.764;8.936;2023-04-06T15:07:49;97010;;;12.5;45.5
68489;BME280;55481;48.764;8.936;2023-04-06T15:10:20;97010;;;12.6;45
68489;BME280;55481;48.764;8.936;2023-04-06T15:12:51;97010;;;12.8;45
68489;BME280;55481;48.764;8.936;2023-04-06T15:20:17;97010;;;12.6;45
68489;BME280;55481;48.764;8.936;2023-04-06T15:22:48;97010;;;12.6;45
68489;BME280;55481;48.764;8.936;2023-04-06T15:25:18;97010;;;12.6;45
68489;BME280;55481;48.764;8.936;2023-04-06T15:27:49;97010;;;12.5;45
68489;BME280;55481;48.764;8.936;2023-04-06T15:30:19;97010;;;12.3;45.5
68489;BME280;55481;48.764;8.936;2023-04-06T15:32:58;97010;;;12.4;45
68489;BME280;55481;48.764;8.936;2023-04-06T15:35:21;97010;;;12.4;45
68489;BME280;55481;48.764;8.936;2023-04-06T15:37:52;97010;;;12.5;45
68489;BME280;55481;48.764;8.936;2023-04-06T15:40:23;97010;;;12.3;45.5
68489;BME280;55481;48.764;8.936;2023-04-06T15:47:55;97010;;;12;46
68489;BME280;55481;48.764;8.936;2023-04-06T15:50:26;97010;;;11.9;46
68489;BME280;55481;48.764;8.936;2023-04-06T15:52:56;97020;;;11.9;45.5
68489;BME280;55481;48.764;8.936;2023-04-06T15:55:34;97020;;;11.8;45.5
68489;BME280;55481;48.764;8.936;2023-04-06T15:58:05;97010;;;11.9;45.5
68489;BME280;55481;48.764;8.936;2023-04-06T16:00:35;97010;;;11.9;45.5
68489;BME280;55481;48.764;8.936;2023-04-06T16:03:07;97010;;;11.9;45.5
68489;BME280;55481;48.764;8.936;2023-04-06T16:05:37;97010;;;11.9;45.5
68489;BME280;55481;48.764;8.936;2023-04-06T16:13:03;97010;;;11.7;46
68489;BME280;55481;48.764;8.936;2023-04-06T16:15:34;97020;;;11.7;46
68489;BME280;55481;48.764;8.936;2023-04-06T16:18:05;97020;;;11.7;45.5
68489;BME280;55481;48.764;8.936;2023-04-06T16:23:06;97010;;;11.5;46
68489;BME280;55481;48.764;8.936;2023-04-06T16:25:37;97010;;;11.6;46
68489;BME280;55481;48.764;8.936;2023-04-06T16:33:09;97020;;;11.5;46
68489;BME280;55481;48.764;8.936;2023-04-06T16:38:36;97020;;;11.4;46
68489;BME280;55481;48.764;8.936;2023-04-06T16:41:01;97020;;;11.4;46
68489;BME280;55481;48.764;8.936;2023-04-06T16:43:24;97030;;;11.4;46
68489;BME280;55481;48.764;8.936;2023-04-06T16:45:54;97030;;;11.3;46
68489;BME280;55481;48.764;8.936;2023-04-06T16:48:24;97030;;;11.3;46
68489;BME280;55481;48.764;8.936;2023-04-06T16:50:54;97030;;;11.2;46.5
68489;BME280;55481;48.764;8.936;2023-04-06T16:55:48;97020;;;11.2;46.5
68489;BME280;55481;48.764;8.936;2023-04-06T16:58:26;97020;;;11.2;46.5
68489;BME280;55481;48.764;8.936;2023-04-06T17:03:21;97030;;;11;46.5
68489;BME280;55481;48.764;8.936;2023-04-06T17:08:29;97030;;;10.9;46.5
68489;BME280;55481;48.764;8.936;2023-04-06T17:11:00;97030;;;11.1;46.5
68489;BME280;55481;48.764;8.936;2023-04-06T17:15:54;97030;;;12.5;43.5
68489;BME280;55481;48.764;8.936;2023-04-06T17:18:24;97020;;;13.1;42
68489;BME280;55481;48.764;8.936;2023-04-06T17:20:56;97010;;;13.7;41
68489;BME280;55481;48.764;8.936;2023-04-06T17:23:27;97010;;;14;40.5
68489;BME280;55481;48.764;8.936;2023-04-06T17:26:05;97020;;;13.7;41
68489;BME280;55481;48.764;8.936;2023-04-06T17:28:37;97020;;;13.6;41.5
68489;BME280;55481;48.764;8.936;2023-04-06T17:30:59;97020;;;13.8;41
68489;BME280;55481;48.764;8.936;2023-04-06T17:33:31;97020;;;13.6;41
68489;BME280;55481;48.764;8.936;2023-04-06T17:36:08;97020;;;13.8;41
68489;BME280;55481;48.764;8.936;2023-04-06T17:38:32;97020;;;13.9;40.5
68489;BME280;55481;48.764;8.936;2023-04-06T17:40:56;97020;;;13.6;41.5
68489;BME280;55481;48.764;8.936;2023-04-06T17:43:27;97020;;;13.7;41
68489;BME280;55481;48.764;8.936;2023-04-06T17:45:58;97020;;;13.7;41
68489;BME280;55481;48.764;8.936;2023-04-06T17:48:29;97020;;;14.4;40
68489;BME280;55481;48.764;8.936;2023-04-06T17:56:01;97040;;;11.9;44
68489;BME280;55481;48.764;8.936;2023-04-06T17:58:32;97050;;;11.3;45.5
68489;BME280;55481;48.764;8.936;2023-04-06T18:03:39;97050;;;10.7;46.5
68489;BME280;55481;48.764;8.936;2023-04-06T18:06:10;97060;;;10.5;46.5
68489;BME280;55481;48.764;8.936;2023-04-06T18:08:41;97060;;;10.4;46.5
68489;BME280;55481;48.764;8.936;2023-04-06T18:11:14;97060;;;10.4;46.5
68489;BME280;55481;48.764;8.936;2023-04-06T18:16:20;97070;;;10.1;47
68489;BME280;55481;48.764;8.936;2023-04-06T18:18:51;97070;;;10.2;46.5
68489;BME280;55481;48.764;8.936;2023-04-06T18:21:21;97080;;;10.2;46.5
68489;BME280;55481;48.764;8.936;2023-04-06T18:23:52;97080;;;10;47
68489;BME280;55481;48.764;8.936;2023-04-06T18:28:47;97080;;;9.8;47
68489;BME280;55481;48.764;8.936;2023-04-06T18:31:18;97080;;;9.8;47
68489;BME280;55481;48.764;8.936;2023-04-06T18:36:26;97090;;;9.9;46.5
68489;BME280;55481;48.764;8.936;2023-04-06T18:39:03;97090;;;9.8;46.5
68489;BME280;55481;48.764;8.936;2023-04-06T18:41:27;97090;;;9.7;47
68489;BME280;55481;48.764;8.936;2023-04-06T18:46:20;97090;;;9.7;47
68489;BME280;55481;48.764;8.936;2023-04-06T18:48:51;97090;;;9.8;46.5
68489;BME280;55481;48.764;8.936;2023-04-06T18:51:30;97100;;;9.7;46.5
68489;BME280;55481;48.764;8.936;2023-04-06T18:54:00;97100;;;9.5;47
68489;BME280;55481;48.764;8.936;2023-04-06T18:58:48;97110;;;9.4;47